Time;durP1;ratioP1;P1;durP2;ratioP2;P2;SDS_P1;SDS_P2;PMS_P1;PMS_P2;Temp;Humidity;BMP_temperature;BMP_pressure;BME280_temperature;BME280_humidity;BME280_pressure;Samples;Min_cycle;Max_cycle;Signal;HPM_P1;HPM_P2
2022/03/16 00:01:01;;;;;;;41.28;12.80;;;;;;;4.25;90.02;101610.53;4993497;28;20049;-64
2022/03/16 00:04:04;;;;;;;29.40;13.52;;;;;;;4.25;89.44;101602.78;4993582;28;20044;-64
2022/03/16 00:07:07;;;;;;;23.48;12.77;;;;;;;4.18;89.36;101614.91;4993331;28;20045;-64
2022/03/16 00:10:12;;;;;;;24.88;12.45;;;;;;;4.21;88.17;101612.25;4992845;28;20078;-64
2022/03/16 00:13:15;;;;;;;25.55;13.57;;;;;;;4.10;88.00;101619.28;4993294;28;20073;-64
2022/03/16 00:16:19;;;;;;;14.35;11.38;;;;;;;4.10;88.07;101620.13;4993201;28;20049;-64
2022/03/16 00:19:22;;;;;;;;;;;;;;;4.20;87.54;101615.72;4993451;28;20049;-64
2022/03/16 00:22:25;;;;;;;16.67;13.30;;;;;;;4.15;87.35;101613.19;4993285;28;19929;-64
2022/03/16 00:25:28;;;;;;;;;;;;;;;4.21;87.25;101620.03;4993433;28;20091;-64
2022/03/16 00:28:31;;;;;;;19.75;14.35;;;;;;;4.18;87.33;101622.69;4993100;28;20007;-64
2022/03/16 00:31:35;;;;;;;14.77;12.63;;;;;;;4.15;87.16;101620.97;4980731;28;20420;-64
2022/03/16 00:34:38;;;;;;;20.80;13.82;;;;;;;4.21;87.31;101620.03;4992921;28;20041;-64
2022/03/16 00:37:42;;;;;;;18.92;14.38;;;;;;;4.09;87.24;101623.59;4992852;28;20111;-64
2022/03/16 00:40:45;;;;;;;18.98;12.75;;;;;;;3.97;87.12;101616.78;4992796;28;20041;-64
2022/03/16 00:43:48;;;;;;;15.88;13.77;;;;;;;3.86;87.59;101621.19;4992649;28;20128;-64
2022/03/16 00:46:52;;;;;;;;;;;;;;;3.83;87.40;101626.38;4992849;28;20120;-64
2022/03/16 00:49:55;;;;;;;15.75;13.30;;;;;;;4.04;87.17;101627.09;4992526;28;19920;-64
2022/03/16 00:52:59;;;;;;;;;;;;;;;4.16;86.44;101614.91;4993147;28;20053;-64
2022/03/16 00:56:02;;;;;;;35.72;13.43;;;;;;;3.91;87.14;101610.78;4980631;28;19919;-64
2022/03/16 00:59:05;;;;;;;15.07;12.73;;;;;;;4.04;87.18;101602.06;4992379;28;20116;-64
2022/03/16 01:02:09;;;;;;;;;;;;;;;3.97;87.03;101603.84;4980873;28;20416;-64
2022/03/16 01:05:12;;;;;;;22.67;12.93;;;;;;;3.89;86.99;101609.94;4980433;28;19924;-64
2022/03/16 01:08:16;;;;;;;34.70;13.73;;;;;;;3.74;87.97;101603.16;4992362;28;20092;-64
2022/03/16 01:11:19;;;;;;;17.88;13.30;;;;;;;3.74;88.07;101598.00;4980314;28;20045;-65
2022/03/16 01:14:23;;;;;;;18.85;13.57;;;;;;;3.73;88.29;101585.91;4992292;28;20563;-64
2022/03/16 01:17:26;;;;;;;;;;;;;;;3.82;88.26;101591.00;4980535;28;20045;-64
2022/03/16 01:20:29;;;;;;;24.00;14.77;;;;;;;3.78;87.97;101599.66;4994744;28;20335;-64
2022/03/16 01:23:34;;;;;;;19.67;13.80;;;;;;;3.82;87.86;101606.53;4996278;28;20534;-64
2022/03/16 01:26:38;;;;;;;18.95;13.55;;;;;;;3.79;88.21;101603.97;4996336;28;20423;-64
2022/03/16 01:29:41;;;;;;;16.73;13.25;;;;;;;3.92;87.99;101602.16;4996142;28;20531;-64
2022/03/16 01:32:44;;;;;;;16.05;12.95;;;;;;;3.97;88.20;101606.44;4996124;28;20136;-64
2022/03/16 01:35:48;;;;;;;16.98;13.77;;;;;;;4.01;88.11;101603.81;4984196;28;20049;-64
2022/03/16 01:38:52;;;;;;;19.90;13.63;;;;;;;4.02;88.18;101597.75;4996138;28;20045;-64
2022/03/16 01:41:55;;;;;;;;;;;;;;;3.93;87.54;101601.31;4996469;28;20158;-64
2022/03/16 01:44:58;;;;;;;24.30;14.98;;;;;;;3.84;87.85;101594.47;4996211;28;19920;-64
2022/03/16 01:48:01;;;;;;;26.42;14.32;;;;;;;3.82;88.44;101606.53;4995761;28;20061;-64
2022/03/16 01:51:04;;;;;;;20.77;14.18;;;;;;;3.84;88.20;101603.94;4983701;28;20404;-64
2022/03/16 01:54:07;;;;;;;36.58;15.75;;;;;;;3.77;88.41;101605.72;4983714;28;20041;-64
2022/03/16 01:57:11;;;;;;;29.55;15.10;;;;;;;3.80;88.82;101608.28;4983548;28;20064;-64
2022/03/16 02:00:17;;;;;;;21.50;14.90;;;;;;;3.97;88.26;101603.84;4983659;28;20053;-64
2022/03/16 02:03:20;;;;;;;69.53;15.35;;;;;;;3.97;87.96;101609.00;4983662;28;20466;-64
2022/03/16 02:06:24;;;;;;;19.90;15.65;;;;;;;3.87;88.45;101606.53;4983471;28;20092;-64
2022/03/16 02:09:27;;;;;;;44.97;16.38;;;;;;;3.79;88.75;101606.56;4995421;28;20045;-64
2022/03/16 02:12:41;;;;;;;40.13;15.75;;;;;;;3.73;89.54;101612.66;4995513;28;20049;-64
2022/03/16 02:15:45;;;;;;;17.38;13.95;;;;;;;3.91;89.25;101603.03;4995450;28;20053;-64
2022/03/16 02:18:49;;;;;;;27.27;15.40;;;;;;;4.05;88.70;101613.25;4995140;28;20049;-64
2022/03/16 02:21:59;;;;;;;75.45;16.00;;;;;;;3.89;88.76;101610.81;4983471;28;20084;-64
2022/03/16 02:25:03;;;;;;;58.58;15.98;;;;;;;3.81;89.15;101609.16;4995307;28;20073;-64
2022/03/16 02:28:06;;;;;;;59.08;16.45;;;;;;;3.74;89.22;101618.69;4995422;28;20432;-64
2022/03/16 02:31:09;;;;;;;;;;;;;;;3.73;89.70;101616.94;4994783;28;20088;-64
2022/03/16 02:34:13;;;;;;;31.48;13.82;;;;;;;3.75;89.53;101602.28;4995144;28;19972;-64
2022/03/16 02:37:16;;;;;;;31.40;14.13;;;;;;;3.58;90.13;101609.31;4994976;28;20041;-64
2022/03/16 02:40:20;;;;;;;;;;;;;;;3.56;90.41;101608.44;4995424;28;20043;-64
2022/03/16 02:43:24;;;;;;;51.50;15.50;;;;;;;3.54;90.78;101613.59;4994803;28;19921;-63
2022/03/16 02:46:28;;;;;;;49.55;14.35;;;;;;;3.66;90.26;101610.09;4994949;28;20115;-68
2022/03/16 02:49:31;;;;;;;51.50;15.65;;;;;;;3.62;90.56;101618.75;4994734;28;20051;-64
2022/03/16 02:52:35;;;;;;;26.30;15.52;;;;;;;3.67;90.64;101622.16;4994689;28;20045;-64
2022/03/16 02:55:38;;;;;;;34.38;14.70;;;;;;;3.66;90.39;101623.03;4994950;28;20049;-64
2022/03/16 02:58:42;;;;;;;;;;;;;;;3.68;90.58;101623.88;4995201;28;20154;-64
2022/03/16 03:01:45;;;;;;;79.72;14.48;;;;;;;3.61;90.72;101628.25;4994753;28;19975;-64
2022/03/16 03:04:49;;;;;;;32.58;14.90;;;;;;;3.59;90.45;101623.94;4994676;28;20108;-64
2022/03/16 03:07:52;;;;;;;;;;;;;;;3.59;90.93;101629.13;4995037;28;20053;-64
2022/03/16 03:10:55;;;;;;;21.83;14.10;;;;;;;3.53;90.84;101636.91;4994339;28;19967;-64
2022/03/16 03:13:58;;;;;;;27.38;13.88;;;;;;;3.60;90.54;101630.81;4989085;28;20045;-64
2022/03/16 03:17:02;;;;;;;31.80;14.13;;;;;;;3.64;90.73;101635.13;4987743;28;20053;-64
2022/03/16 03:20:06;;;;;;;19.73;14.02;;;;;;;3.75;90.27;101630.72;4984630;28;20057;-64
2022/03/16 03:23:09;;;;;;;39.80;14.70;;;;;;;3.65;90.39;101636.84;4635307;28;9999635;-64
2022/03/16 03:26:13;;;;;;;;;;;;;;;3.81;89.87;101643.63;4990649;28;20546;-64
2022/03/16 03:29:16;;;;;;;21.97;14.97;;;;;;;3.89;89.95;101641.88;4990933;28;19928;-64
2022/03/16 03:32:20;;;;;;;26.48;15.55;;;;;;;3.94;89.20;101641.81;5000198;28;20884;-64
2022/03/16 03:35:23;;;;;;;36.33;15.55;;;;;;;3.96;88.99;101640.94;5010527;28;20095;-64
2022/03/16 03:38:27;;;;;;;;;;;;;;;3.95;89.08;101643.53;5010676;28;20053;-64
2022/03/16 03:41:30;;;;;;;29.15;15.07;;;;;;;3.88;89.15;101640.13;5010299;28;20008;-64
2022/03/16 03:44:37;;;;;;;22.52;15.82;;;;;;;3.83;89.39;101644.50;5010039;28;20044;-64
2022/03/16 03:47:41;;;;;;;20.38;14.07;;;;;;;3.83;89.71;101643.59;5009576;28;20092;-64
2022/03/16 03:50:44;;;;;;;20.67;14.27;;;;;;;3.80;89.86;101647.09;5009979;28;20052;-64
2022/03/16 03:53:48;;;;;;;23.05;13.80;;;;;;;3.78;90.09;101651.41;5009980;28;20061;-64
2022/03/16 03:56:51;;;;;;;23.92;15.20;;;;;;;3.78;90.32;101654.00;5009843;28;20076;-64
2022/03/16 03:59:54;;;;;;;21.65;13.90;;;;;;;3.91;89.58;101647.88;5010302;28;20129;-64
2022/03/16 04:02:58;;;;;;;23.80;13.93;;;;;;;3.99;89.58;101653.00;5010411;28;20080;-64
2022/03/16 04:06:01;;;;;;;17.70;13.77;;;;;;;4.12;88.63;101651.19;5010036;28;20129;-64
2022/03/16 04:09:05;;;;;;;24.88;14.50;;;;;;;3.84;88.71;101656.56;5009494;28;20076;-64
2022/03/16 04:12:09;;;;;;;18.08;13.73;;;;;;;3.86;89.91;101659.13;5009461;28;20096;-64
2022/03/16 04:15:13;;;;;;;21.33;15.23;;;;;;;3.94;89.38;101662.53;5009274;28;20534;-64
2022/03/16 04:18:16;;;;;;;20.88;16.83;;;;;;;3.94;88.52;101663.38;5009082;28;20049;-64
2022/03/16 04:21:20;;;;;;;21.45;16.33;;;;;;;3.96;88.25;101653.88;5009864;28;20092;-64
2022/03/16 04:24:23;;;;;;;;;;;;;;;3.91;88.84;101662.53;5010166;28;20518;-64
2022/03/16 04:27:26;;;;;;;20.25;14.75;;;;;;;3.89;88.72;101662.56;4988886;28;19941;-64
2022/03/16 04:30:29;;;;;;;;;;;;;;;3.84;89.10;101656.56;4990205;28;20108;-64
2022/03/16 04:33:32;;;;;;;19.60;14.30;;;;;;;3.86;88.91;101657.41;4989570;28;19920;-64
2022/03/16 04:36:35;;;;;;;17.98;13.82;;;;;;;3.83;88.45;101660.03;4989555;28;20120;-64
2022/03/16 04:39:39;;;;;;;18.90;14.88;;;;;;;3.80;88.50;101664.31;4989533;28;20077;-64
2022/03/16 04:42:42;;;;;;;19.52;16.17;;;;;;;3.76;88.81;101663.50;4989461;28;20085;-64
2022/03/16 04:45:45;;;;;;;;;;;;;;;3.90;88.31;101666.00;4990017;28;20073;-64
2022/03/16 04:48:49;;;;;;;19.00;15.73;;;;;;;4.02;88.18;101665.03;4989944;28;19971;-64
2022/03/16 04:51:52;;;;;;;;;;;;;;;3.91;87.67;101663.41;4990527;28;20104;-64
2022/03/16 04:54:56;;;;;;;19.27;15.07;;;;;;;3.87;87.76;101661.72;4988469;28;20391;-64
2022/03/16 04:58:00;;;;;;;;;;;;;;;3.84;88.13;101672.06;4989974;28;20057;-64
2022/03/16 05:01:04;;;;;;;19.98;15.10;;;;;;;3.72;87.88;101677.31;4989310;28;20014;-64
2022/03/16 05:04:07;;;;;;;17.25;14.18;;;;;;;3.77;87.62;101675.56;4989271;28;20088;-64
2022/03/16 05:07:10;;;;;;;18.92;16.42;;;;;;;3.64;88.29;101674.78;4989327;28;20053;-64
2022/03/16 05:10:14;;;;;;;;;;;;;;;3.70;87.70;101673.88;4989177;28;20057;-64
2022/03/16 05:13:17;;;;;;;;;;;;;;;3.69;87.57;101666.97;4631601;28;9999666;-65
2022/03/16 05:16:20;;;;;;;16.00;13.95;;;;;;;3.69;87.87;101669.56;4984121;28;19960;-65
2022/03/16 05:19:26;;;;;;;17.63;15.18;;;;;;;3.69;87.26;101661.81;4980688;28;20089;-64
2022/03/16 05:22:29;;;;;;;16.00;14.35;;;;;;;3.72;87.08;101672.16;4987055;28;20085;-64
2022/03/16 05:25:32;;;;;;;16.35;14.65;;;;;;;3.70;87.05;101673.88;4988414;28;20060;-64
2022/03/16 05:28:35;;;;;;;18.20;15.82;;;;;;;3.72;87.13;101687.66;4979764;28;20041;-64
2022/03/16 05:31:39;;;;;;;17.10;15.15;;;;;;;3.61;87.64;101694.63;4987605;28;20057;-64
2022/03/16 05:34:42;;;;;;;19.27;16.98;;;;;;;3.74;87.45;101685.94;4988652;28;20048;-64
2022/03/16 05:37:46;;;;;;;19.50;17.40;;;;;;;3.86;86.70;101683.28;4988173;28;20057;-64
2022/03/16 05:40:49;;;;;;;21.52;17.20;;;;;;;3.78;86.57;101697.97;4976482;28;20107;-64
2022/03/16 05:43:52;;;;;;;18.30;15.65;;;;;;;3.66;86.85;101691.13;4988055;28;20057;-64
2022/03/16 05:46:57;;;;;;;21.48;15.45;;;;;;;3.66;86.83;101698.03;4982943;28;20057;-64
2022/03/16 05:50:00;;;;;;;19.00;16.25;;;;;;;3.66;86.95;101703.22;4969119;28;20089;-64
2022/03/16 05:53:03;;;;;;;24.98;19.88;;;;;;;3.75;86.78;101699.72;4967983;28;20065;-64
2022/03/16 05:56:07;;;;;;;32.30;25.13;;;;;;;3.42;87.28;101707.63;4968192;28;20050;-64
2022/03/16 05:59:10;;;;;;;19.10;16.73;;;;;;;3.52;86.77;101711.03;4967933;28;20090;-64
2022/03/16 06:02:14;;;;;;;17.00;15.10;;;;;;;3.42;87.00;101725.72;4968131;28;20186;-64
2022/03/16 06:05:17;;;;;;;21.55;14.98;;;;;;;3.25;87.21;101706.81;4967752;28;20424;-64
2022/03/16 06:08:21;;;;;;;14.95;13.40;;;;;;;3.42;87.00;101709.38;4970474;28;20548;-64
2022/03/16 06:11:24;;;;;;;14.60;12.85;;;;;;;3.41;86.75;101712.78;4971274;28;20046;-65
2022/03/16 06:14:29;;;;;;;15.93;14.18;;;;;;;3.33;86.63;101720.59;4971506;28;20073;-64
2022/03/16 06:17:32;;;;;;;24.20;19.58;;;;;;;3.57;85.96;101723.94;4972012;28;20448;-64
2022/03/16 06:20:37;;;;;;;15.57;13.90;;;;;;;3.48;85.79;101712.78;4971362;28;20137;-64
2022/03/16 06:23:40;;;;;;;13.32;11.88;;;;;;;3.33;86.47;101715.41;4959042;28;20097;-64
2022/03/16 06:26:44;;;;;;;15.23;12.90;;;;;;;3.23;86.34;101724.06;4966038;28;20464;-64
2022/03/16 06:29:47;;;;;;;14.77;12.70;;;;;;;3.26;86.91;101729.25;4967541;28;20057;-64
2022/03/16 06:32:51;;;;;;;14.68;12.25;;;;;;;3.29;87.04;101734.41;4970235;28;20125;-64
2022/03/16 06:35:54;;;;;;;15.55;13.50;;;;;;;3.35;86.63;101729.22;4970836;28;20472;-64
2022/03/16 06:38:58;;;;;;;14.10;12.05;;;;;;;3.28;86.31;101717.16;4958962;28;20075;-64
2022/03/16 06:42:01;;;;;;;11.57;10.38;;;;;;;3.29;86.55;101729.22;4963920;28;20178;-64
2022/03/16 06:45:04;;;;;;;;;;;;;;;3.32;86.05;101725.75;4969000;28;20093;-64
2022/03/16 06:48:07;;;;;;;12.88;11.05;;;;;;;3.32;85.87;101730.91;4972146;28;19940;-64
2022/03/16 06:51:11;;;;;;;13.45;11.70;;;;;;;3.33;86.05;101725.75;4971950;28;20061;-64
2022/03/16 06:54:14;;;;;;;;;;;;;;;3.24;85.92;101725.78;4971629;28;20555;-64
2022/03/16 06:57:18;;;;;;;12.15;10.50;;;;;;;3.34;85.66;101722.31;4940920;28;19992;-65
2022/03/16 07:00:21;;;;;;;;;;;;;;;3.19;86.42;101718.06;4951592;29;20442;-65
2022/03/16 07:03:25;;;;;;;13.63;10.18;;;;;;;3.28;86.21;101717.16;4964829;28;20022;-65
2022/03/16 07:06:28;;;;;;;;;;;;;;;3.31;86.06;101726.63;4971425;28;20081;-64
2022/03/16 07:09:32;;;;;;;18.25;11.07;;;;;;;3.31;86.03;101737.81;4971345;28;20266;-64
2022/03/16 07:12:35;;;;;;;12.18;10.88;;;;;;;3.31;86.13;101724.03;4958004;28;20120;-65
2022/03/16 07:15:40;;;;;;;11.15;10.00;;;;;;;3.35;86.32;101724.03;4970270;28;20130;-65
2022/03/16 07:18:43;;;;;;;11.35;9.75;;;;;;;3.38;86.13;101716.28;4969509;28;20054;-65
2022/03/16 07:21:47;;;;;;;12.18;10.18;;;;;;;3.25;86.30;101715.47;4969877;28;20421;-65
2022/03/16 07:24:50;;;;;;;;;;;;;;;3.19;86.06;101712.88;4971223;28;20046;-64
2022/03/16 07:27:54;;;;;;;10.25;8.90;;;;;;;3.14;86.93;101708.59;4970023;28;19924;-64
2022/03/16 07:30:57;;;;;;;11.40;9.82;;;;;;;3.31;86.44;101714.56;4950662;29;20353;-65
2022/03/16 07:34:00;;;;;;;14.02;9.77;;;;;;;3.32;86.98;101720.56;4950826;29;20050;-64
2022/03/16 07:37:04;;;;;;;;;;;;;;;3.37;86.67;101722.28;4951008;29;20130;-65
2022/03/16 07:40:08;;;;;;;14.75;9.90;;;;;;;3.47;86.46;101723.13;4958971;28;19924;-65
2022/03/16 07:43:11;;;;;;;14.18;11.18;;;;;;;3.45;86.71;101719.69;4970356;28;20122;-64
2022/03/16 07:46:16;;;;;;;11.57;10.38;;;;;;;3.44;86.97;101725.72;4958511;28;20061;-65
2022/03/16 07:49:19;;;;;;;;;;;;;;;3.45;87.15;101728.31;4960067;28;20314;-65
2022/03/16 07:52:24;;;;;;;15.23;11.10;;;;;;;3.54;87.03;101723.94;4969147;28;19925;-64
2022/03/16 07:55:27;;;;;;;16.10;10.93;;;;;;;3.57;86.46;101721.34;4968781;28;20053;-64
2022/03/16 07:58:31;;;;;;;13.43;11.73;;;;;;;3.58;87.44;101730.84;4969428;28;20057;-64
2022/03/16 08:01:34;;;;;;;13.23;11.15;;;;;;;3.67;86.63;101735.97;4969700;28;20101;-64
2022/03/16 08:04:37;;;;;;;17.13;11.85;;;;;;;3.76;86.51;101735.06;4967090;28;20073;-64
2022/03/16 08:07:41;;;;;;;13.70;12.20;;;;;;;3.84;86.30;101738.50;4964521;28;20113;-64
2022/03/16 08:10:44;;;;;;;14.10;11.43;;;;;;;3.87;86.98;101748.81;4968459;28;20049;-64
2022/03/16 08:13:48;;;;;;;14.20;11.95;;;;;;;4.00;86.79;101744.44;4968967;28;20057;-64
2022/03/16 08:16:51;;;;;;;15.10;13.10;;;;;;;4.07;86.38;101753.88;4968904;28;20473;-65
2022/03/16 08:19:54;;;;;;;14.38;12.50;;;;;;;4.04;86.85;101749.59;4969891;28;20073;-64
2022/03/16 08:22:58;;;;;;;;;;;;;;;3.87;87.57;101756.59;4970120;28;20101;-65
2022/03/16 08:26:01;;;;;;;13.53;11.67;;;;;;;4.15;87.77;101752.13;4949607;28;20024;-64
2022/03/16 08:29:04;;;;;;;15.40;13.43;;;;;;;4.23;86.28;101750.34;4948915;28;20041;-65
2022/03/16 08:32:08;;;;;;;15.93;13.48;;;;;;;4.22;86.11;101750.34;4949428;29;20109;-64
2022/03/16 08:35:12;;;;;;;14.43;12.93;;;;;;;3.93;87.33;101736.72;4950012;29;20105;-64
2022/03/16 08:38:15;;;;;;;12.52;11.23;;;;;;;4.22;87.17;101737.41;4949666;29;20077;-64
2022/03/16 08:41:18;;;;;;;13.05;11.75;;;;;;;4.40;86.76;101740.75;4950577;29;20046;-64
2022/03/16 08:44:24;;;;;;;;;;;;;;;4.55;85.70;101739.75;4953450;29;20644;-64
2022/03/16 08:47:28;;;;;;;12.98;11.68;;;;;;;4.71;84.99;101748.25;4955239;28;19968;-64
2022/03/16 08:50:31;;;;;;;14.52;12.27;;;;;;;4.43;86.82;101748.50;4973172;28;20187;-65
2022/03/16 08:53:37;;;;;;;13.88;12.43;;;;;;;4.32;87.63;101739.91;4973226;28;20489;-64
2022/03/16 08:56:39;;;;;;;15.25;12.60;;;;;;;4.52;86.45;101733.72;4973059;28;20050;-64
2022/03/16 08:59:43;;;;;;;;;;;;;;;4.58;86.73;101733.69;4973360;28;20444;-64
2022/03/16 09:02:46;;;;;;;15.25;13.68;;;;;;;4.58;86.25;101726.75;4972992;28;20038;-64
2022/03/16 09:05:49;;;;;;;14.20;12.70;;;;;;;4.40;87.41;101714.84;4972835;28;20046;-64
2022/03/16 09:08:52;;;;;;;14.98;13.38;;;;;;;4.54;87.41;101713.88;4972983;28;20444;-64
2022/03/16 09:11:55;;;;;;;;;;;;;;;4.57;87.07;101711.25;4973631;28;20053;-64
2022/03/16 09:14:58;;;;;;;15.93;14.00;;;;;;;4.70;87.10;101712.00;4972781;28;19945;-64
2022/03/16 09:18:02;;;;;;;18.08;14.50;;;;;;;4.81;86.55;101703.22;4972284;28;20244;-64
2022/03/16 09:21:06;;;;;;;20.50;16.08;;;;;;;4.96;85.94;101710.00;4970292;28;20101;-65
2022/03/16 09:24:10;;;;;;;17.77;15.88;;;;;;;4.88;86.42;101693.66;4967682;28;20105;-65
2022/03/16 09:27:15;;;;;;;18.25;15.43;;;;;;;5.16;86.07;101690.78;4967705;28;20073;-65
2022/03/16 09:30:19;;;;;;;19.83;16.75;;;;;;;5.17;86.19;101690.78;4968385;28;20065;-64
2022/03/16 09:33:23;;;;;;;;;;;;;;;5.38;85.40;101686.22;4983708;28;20049;-64
2022/03/16 09:36:27;;;;;;;20.70;16.88;;;;;;;5.67;84.84;101684.09;4975601;28;20017;-64
2022/03/16 09:39:31;;;;;;;20.70;18.60;;;;;;;5.69;84.88;101687.53;4987173;28;20049;-65
2022/03/16 09:42:34;;;;;;;22.65;19.23;;;;;;;5.94;84.17;101680.31;4990916;28;20049;-65
2022/03/16 09:45:51;;;;;;;25.35;20.80;;;;;;;6.04;84.62;101681.03;4971880;28;20045;-65
2022/03/16 09:48:54;;;;;;;24.98;20.67;;;;;;;6.26;85.48;101674.63;4991034;28;20053;-65
2022/03/16 09:51:59;;;;;;;25.45;20.88;;;;;;;6.28;85.62;101662.44;4990829;28;20057;-65
2022/03/16 09:55:05;;;;;;;26.48;21.42;;;;;;;6.33;86.79;101657.19;4991047;28;20056;-65
2022/03/16 09:58:08;;;;;;;24.10;21.25;;;;;;;6.35;87.86;101652.84;4991557;28;20050;-65
2022/03/16 10:01:11;;;;;;;;;;;;;;;6.31;86.92;101668.50;4991214;28;20535;-65
2022/03/16 10:04:28;;;;;;;21.92;19.27;;;;;;;6.52;86.85;101662.94;4990827;28;20226;-65
2022/03/16 10:07:31;;;;;;;20.08;17.98;;;;;;;6.75;85.86;101652.97;4980285;28;20080;-65
2022/03/16 10:14:06;;;;;;;19.10;17.20;;;;;;;6.65;85.47;101659.22;4990808;28;20097;-65
2022/03/16 10:20:32;;;;;;;21.25;16.95;;;;;;;6.63;87.48;101655.78;4991092;28;20215;-65
2022/03/16 10:23:36;;;;;;;19.45;17.13;;;;;;;6.63;87.86;101648.00;4990388;28;20049;-65
2022/03/16 10:26:50;;;;;;;;;;;;;;;6.78;88.07;101640.81;4990824;28;20049;-65
2022/03/16 10:29:54;;;;;;;23.35;16.95;;;;;;;6.75;87.94;101642.59;4989570;28;19956;-65
2022/03/16 10:32:59;;;;;;;19.17;17.13;;;;;;;6.92;87.37;101644.88;4990293;28;20460;-64
2022/03/16 10:36:08;;;;;;;18.65;16.63;;;;;;;7.00;87.70;101642.13;4989876;28;20060;-65
2022/03/16 10:39:12;;;;;;;17.63;15.73;;;;;;;7.17;87.44;101632.22;4990215;28;20178;-64
2022/03/16 10:49:09;;;;;;;18.40;16.50;;;;;;;7.57;86.65;101634.00;4970494;28;20447;-65
2022/03/16 10:52:17;;;;;;;16.30;14.65;;;;;;;7.52;85.26;101629.78;4968729;28;20166;-65
2022/03/16 10:55:22;;;;;;;18.35;15.60;;;;;;;7.63;86.31;101623.47;4988975;28;20328;-65
2022/03/16 10:58:28;;;;;;;19.42;16.00;;;;;;;8.00;87.58;101606.09;4990758;28;20042;-65
2022/03/16 11:01:38;;;;;;;16.38;14.68;;;;;;;8.13;85.77;101603.16;4990765;28;20104;-65
2022/03/16 11:04:47;;;;;;;18.10;16.15;;;;;;;8.20;83.83;101600.41;4990561;28;20048;-65
2022/03/16 11:07:51;;;;;;;17.23;15.32;;;;;;;8.44;84.67;101589.38;4990781;28;20050;-65
2022/03/16 11:10:55;;;;;;;17.90;13.95;;;;;;;8.46;83.08;101590.22;4990733;28;20133;-65
2022/03/16 11:14:01;;;;;;;15.73;13.10;;;;;;;8.65;80.41;101587.97;4989210;28;20059;-65
2022/03/16 11:17:04;;;;;;;13.55;12.15;;;;;;;8.84;81.34;101581.34;4989664;28;20100;-65
2022/03/16 11:20:11;;;;;;;;;;;;;;;8.99;77.21;101580.03;4990252;28;20108;-67
2022/03/16 11:27:09;;;;;;;12.57;11.20;;;;;;;9.77;73.36;101580.28;4993297;28;20575;-65
2022/03/16 11:30:29;;;;;;;11.43;10.32;;;;;;;10.13;70.54;101577.34;4993708;28;20173;-65
2022/03/16 11:33:48;;;;;;;13.20;11.80;;;;;;;10.22;69.66;101576.19;4992460;28;20049;-65
2022/03/16 11:37:04;;;;;;;11.65;10.45;;;;;;;10.25;69.46;101571.72;4993692;28;20073;-65
2022/03/16 11:40:29;;;;;;;10.93;9.85;;;;;;;10.36;68.23;101568.75;4993094;28;20046;-66
2022/03/16 11:43:32;;;;;;;10.57;9.55;;;;;;;10.62;68.00;101564.38;4993796;28;20554;-66
2022/03/16 11:46:36;;;;;;;;;;;;;;;10.74;67.10;101558.69;4993861;28;20045;-66
2022/03/16 11:49:45;;;;;;;13.30;11.88;;;;;;;10.56;65.49;101533.19;4994227;28;20382;-65
2022/03/16 11:53:05;;;;;;;11.35;10.25;;;;;;;10.25;65.93;101531.66;4993475;28;20049;-65
2022/03/16 11:56:29;;;;;;;11.63;10.43;;;;;;;10.34;66.71;101531.38;4993739;28;20096;-65
2022/03/16 11:59:32;;;;;;;;;;;;;;;10.35;66.54;101535.69;4981812;28;20061;-66
2022/03/16 12:02:38;;;;;;;12.15;10.85;;;;;;;10.51;67.51;101527.31;4992342;28;19921;-66
2022/03/16 12:06:00;;;;;;;11.57;10.38;;;;;;;10.69;65.74;101524.88;4992419;28;20104;-65
2022/03/16 12:09:03;;;;;;;10.80;9.77;;;;;;;10.83;64.72;101526.97;4993398;28;20084;-65
2022/03/16 12:15:55;;;;;;;11.23;10.13;;;;;;;11.06;64.78;101512.16;4993138;28;20184;-66
2022/03/16 12:19:28;;;;;;;10.65;9.63;;;;;;;11.27;64.27;101500.84;4993019;28;20049;-65
2022/03/16 12:22:40;;;;;;;12.07;9.88;;;;;;;11.43;63.90;101493.25;4993069;28;20217;-66
2022/03/16 12:25:46;;;;;;;10.73;9.57;;;;;;;11.49;62.68;101485.13;4993006;28;20073;-65
2022/03/16 12:28:56;;;;;;;10.65;9.55;;;;;;;11.69;62.75;101479.06;4993147;28;20114;-65
2022/03/16 12:32:00;;;;;;;11.68;9.50;;;;;;;11.89;61.71;101482.66;4992931;28;20188;-65
2022/03/16 12:35:04;;;;;;;10.43;9.43;;;;;;;12.00;61.71;101478.66;4992910;28;20053;-65
2022/03/16 12:38:11;;;;;;;10.68;9.57;;;;;;;12.20;60.24;101475.16;4992700;28;20132;-65
2022/03/16 12:44:45;;;;;;;10.60;9.50;;;;;;;11.92;60.83;101472.03;4992712;28;20052;-65
2022/03/16 12:48:03;;;;;;;10.32;9.30;;;;;;;12.06;60.66;101464.41;4992249;28;20069;-65
2022/03/16 12:51:06;;;;;;;11.07;9.98;;;;;;;12.52;59.60;101476.34;4992402;28;20077;-65
2022/03/16 12:54:26;;;;;;;11.40;10.30;;;;;;;13.02;58.33;101475.81;4992520;28;20574;-66
2022/03/16 12:57:29;;;;;;;13.20;9.40;;;;;;;13.27;56.67;101456.25;4992438;28;20057;-66
2022/03/16 13:00:38;;;;;;;9.25;8.35;;;;;;;12.85;57.33;101465.22;4992663;28;20053;-66
2022/03/16 13:03:42;;;;;;;10.60;8.45;;;;;;;12.53;57.69;101464.09;4992084;28;20045;-66
2022/03/16 13:06:46;;;;;;;10.55;7.88;;;;;;;12.50;59.08;101459.81;4978219;28;20085;-66
2022/03/16 13:09:50;;;;;;;10.20;9.20;;;;;;;12.19;58.85;101449.88;4984143;28;20069;-66
2022/03/16 13:13:08;;;;;;;9.50;8.60;;;;;;;12.27;59.25;101453.00;4990263;28;20053;-66
2022/03/16 13:16:11;;;;;;;10.10;9.07;;;;;;;12.47;58.85;101443.38;4988218;28;20092;-66
2022/03/16 13:19:25;;;;;;;9.77;8.77;;;;;;;12.58;57.86;101451.63;4991819;28;20512;-65
2022/03/16 13:22:30;;;;;;;10.40;9.38;;;;;;;12.68;57.83;101449.44;4992326;28;20101;-66
2022/03/16 13:25:34;;;;;;;11.32;10.23;;;;;;;12.25;58.10;101446.09;4979568;28;20053;-66
2022/03/16 13:28:39;;;;;;;11.35;9.48;;;;;;;12.51;58.43;101442.34;4992058;28;20069;-66
2022/03/16 13:31:43;;;;;;;9.52;8.52;;;;;;;12.22;58.81;101438.38;4991545;28;20057;-66
2022/03/16 13:34:50;;;;;;;10.10;9.10;;;;;;;11.97;60.06;101428.16;4987370;28;20053;-66
2022/03/16 13:37:58;;;;;;;9.60;8.60;;;;;;;11.79;60.93;101425.34;4981995;28;20081;-66
2022/03/16 13:41:15;;;;;;;11.48;9.32;;;;;;;11.81;61.28;101428.78;4988738;28;20048;-65
2022/03/16 13:44:24;;;;;;;10.40;9.32;;;;;;;11.75;60.91;101422.94;4989245;28;20069;-66
2022/03/16 13:47:28;;;;;;;10.32;9.00;;;;;;;11.54;61.45;101422.06;4987778;28;20351;-65
2022/03/16 13:50:32;;;;;;;9.30;8.27;;;;;;;11.57;61.62;101416.72;4987384;28;20053;-66
2022/03/16 13:53:49;;;;;;;10.57;9.48;;;;;;;11.56;62.61;101413.25;4978048;28;20416;-65
2022/03/16 13:56:54;;;;;;;9.98;8.98;;;;;;;11.37;62.65;101415.78;4979474;28;20076;-66
2022/03/16 14:00:06;;;;;;;10.63;9.60;;;;;;;11.25;62.88;101411.03;4987375;28;20038;-65
2022/03/16 14:03:22;;;;;;;10.57;9.48;;;;;;;11.39;62.82;101421.81;4968359;28;20046;-65
2022/03/16 14:06:38;;;;;;;10.85;9.63;;;;;;;11.28;62.98;101410.91;4968407;28;20471;-65
2022/03/16 14:09:42;;;;;;;9.98;8.98;;;;;;;11.35;62.57;101414.97;4969868;28;20186;-66
2022/03/16 14:12:46;;;;;;;10.00;9.00;;;;;;;11.52;61.91;101410.81;4970564;28;20158;-66
2022/03/16 14:16:10;;;;;;;9.45;8.45;;;;;;;11.49;63.04;101413.56;4971926;28;20101;-65
2022/03/16 14:19:31;;;;;;;10.40;9.40;;;;;;;11.22;62.40;101408.53;4972371;28;20408;-65
2022/03/16 14:22:34;;;;;;;10.25;9.10;;;;;;;11.27;62.73;101409.22;4971692;28;20053;-65
2022/03/16 14:25:39;;;;;;;11.50;10.23;;;;;;;11.26;62.63;101404.03;4972097;28;20073;-65
2022/03/16 14:28:42;;;;;;;10.23;9.23;;;;;;;11.47;62.67;101402.31;4974420;28;20041;-65
2022/03/16 14:31:46;;;;;;;9.35;8.27;;;;;;;11.46;62.62;101400.63;4975831;28;20046;-65
2022/03/16 14:34:49;;;;;;;10.55;9.50;;;;;;;11.25;61.66;101400.56;4974799;28;20109;-65
2022/03/16 14:37:53;;;;;;;11.07;9.98;;;;;;;11.19;61.70;101398.19;4977229;28;20069;-66
2022/03/16 14:40:58;;;;;;;12.23;9.10;;;;;;;11.16;61.81;101393.09;4971310;28;20050;-66
2022/03/16 14:44:01;;;;;;;10.88;9.80;;;;;;;11.26;62.38;101404.03;4987780;28;20060;-65
2022/03/16 14:47:05;;;;;;;12.27;9.27;;;;;;;11.43;62.48;101385.03;4991811;28;20719;-65